createdAt,value
2022-10-09T00:01:15.407Z,6.75
2022-10-09T00:04:01.471Z,7.65
2022-10-09T00:06:47.266Z,7.63
2022-10-09T00:09:33.166Z,8.70
2022-10-09T00:12:18.664Z,6.82
2022-10-09T00:15:04.973Z,7.63
2022-10-09T00:17:51.082Z,8.80
2022-10-09T00:20:42.451Z,10.60
2022-10-09T00:23:28.670Z,8.63
2022-10-09T00:26:14.817Z,10.90
2022-10-09T00:29:01.001Z,7.38
2022-10-09T00:31:46.682Z,9.23
2022-10-09T00:34:32.420Z,9.30
2022-10-09T00:37:18.615Z,7.32
2022-10-09T00:40:04.792Z,10.93
2022-10-09T00:42:57.126Z,5.90
2022-10-09T00:45:50.875Z,9.20
2022-10-09T00:48:37.011Z,7.57
2022-10-09T00:51:22.659Z,6.43
2022-10-09T00:54:11.378Z,7.95
2022-10-09T00:56:57.403Z,7.32
2022-10-09T00:59:43.639Z,4.93
2022-10-09T01:02:29.710Z,5.43
2022-10-09T01:05:15.962Z,4.30
2022-10-09T01:08:08.475Z,8.48
2022-10-09T01:11:01.455Z,3.58
2022-10-09T01:13:53.059Z,6.53
2022-10-09T01:16:51.319Z,5.80
2022-10-09T01:19:54.746Z,5.32
2022-10-09T01:23:00.765Z,6.30
2022-10-09T01:26:15.161Z,7.30
2022-10-09T01:29:09.947Z,6.00
2022-10-09T01:31:55.885Z,7.75
2022-10-09T01:34:42.950Z,7.30
2022-10-09T01:37:30.501Z,6.40
2022-10-09T01:40:17.591Z,4.88
2022-10-09T01:43:02.990Z,4.93
2022-10-09T01:45:49.316Z,6.38
2022-10-09T01:48:35.006Z,4.97
2022-10-09T01:51:22.569Z,8.60
2022-10-09T01:54:09.541Z,4.00
2022-10-09T01:56:56.161Z,10.48
2022-10-09T01:59:43.799Z,5.90
2022-10-09T02:02:30.127Z,5.47
2022-10-09T02:05:21.254Z,4.57
2022-10-09T02:08:07.465Z,5.10
2022-10-09T02:10:55.851Z,7.70
2022-10-09T02:13:42.174Z,6.60
2022-10-09T02:16:33.558Z,7.68
2022-10-09T02:19:26.573Z,4.72
2022-10-09T02:22:19.104Z,7.30
2022-10-09T02:25:06.425Z,7.35
2022-10-09T02:27:52.085Z,6.30
2022-10-09T02:30:46.963Z,4.45
2022-10-09T02:33:35.402Z,6.63
2022-10-09T02:36:20.970Z,5.28
2022-10-09T02:39:07.390Z,8.95
2022-10-09T02:41:53.739Z,6.38
2022-10-09T02:44:39.215Z,6.60
2022-10-09T02:47:25.070Z,7.97
2022-10-09T02:50:10.610Z,6.35
2022-10-09T02:52:56.360Z,5.72
2022-10-09T02:55:42.318Z,4.80
2022-10-09T02:58:31.083Z,5.32
2022-10-09T03:01:17.813Z,6.50
2022-10-09T03:04:04.166Z,9.02
2022-10-09T03:06:50.158Z,6.70
2022-10-09T03:09:36.229Z,5.32
2022-10-09T03:12:22.242Z,11.88
2022-10-09T03:15:08.857Z,6.35
2022-10-09T03:17:54.646Z,7.40
2022-10-09T03:20:40.379Z,5.03
2022-10-09T03:23:26.988Z,6.50
2022-10-09T03:26:15.335Z,6.50
2022-10-09T03:29:00.784Z,5.30
2022-10-09T03:31:52.320Z,6.07
2022-10-09T03:34:38.725Z,5.90
2022-10-09T03:37:24.816Z,5.88
2022-10-09T03:40:10.870Z,5.40
2022-10-09T03:42:57.209Z,7.70
2022-10-09T03:45:43.745Z,6.15
2022-10-09T03:48:29.741Z,5.13
2022-10-09T03:51:15.190Z,5.93
2022-10-09T03:54:01.259Z,5.53
2022-10-09T03:56:46.876Z,8.73
2022-10-09T03:59:32.610Z,6.78
2022-10-09T04:02:18.140Z,5.90
2022-10-09T04:05:04.112Z,5.43
2022-10-09T04:07:49.765Z,6.00
2022-10-09T04:10:35.729Z,6.15
2022-10-09T04:13:21.226Z,7.75
2022-10-09T04:16:09.631Z,8.27
2022-10-09T04:18:55.574Z,8.05
2022-10-09T04:21:41.314Z,4.88
2022-10-09T04:24:27.355Z,8.95
2022-10-09T04:27:14.064Z,8.23
2022-10-09T04:29:59.929Z,8.52
2022-10-09T04:32:48.178Z,8.70
2022-10-09T04:35:34.341Z,7.95
2022-10-09T04:38:21.302Z,5.13
2022-10-09T04:41:07.446Z,6.97
2022-10-09T04:43:56.959Z,10.15
2022-10-09T04:46:42.621Z,7.60
2022-10-09T04:49:28.224Z,5.85
2022-10-09T04:52:13.712Z,7.57
2022-10-09T04:54:59.405Z,5.30
2022-10-09T04:57:44.958Z,9.27
2022-10-09T05:00:30.554Z,7.38
2022-10-09T05:03:16.618Z,8.55
2022-10-09T05:06:03.828Z,8.50
2022-10-09T05:08:50.084Z,8.20
2022-10-09T05:11:41.674Z,9.60
2022-10-09T05:14:29.071Z,6.97
2022-10-09T05:17:16.538Z,10.65
2022-10-09T05:20:04.411Z,7.53
2022-10-09T05:22:50.962Z,7.38
2022-10-09T05:25:37.806Z,5.63
2022-10-09T05:28:24.176Z,8.45
2022-10-09T05:31:23.933Z,13.48
2022-10-09T05:34:10.648Z,14.27
2022-10-09T05:36:56.748Z,11.73
2022-10-09T05:39:42.894Z,14.85
2022-10-09T05:42:28.549Z,8.68
2022-10-09T05:45:14.669Z,9.15
2022-10-09T05:48:00.228Z,18.35
2022-10-09T05:50:46.689Z,23.48
2022-10-09T05:53:32.628Z,18.13
2022-10-09T05:56:24.015Z,18.33
2022-10-09T05:59:15.746Z,15.93
2022-10-09T06:02:01.489Z,13.45
2022-10-09T06:04:47.140Z,15.25
2022-10-09T06:07:33.449Z,14.38
2022-10-09T06:10:19.693Z,14.63
2022-10-09T06:13:05.204Z,14.35
2022-10-09T06:15:54.883Z,14.73
2022-10-09T06:18:44.407Z,7.15
2022-10-09T06:21:34.481Z,6.78
2022-10-09T06:24:27.346Z,7.65
2022-10-09T06:27:15.190Z,13.35
2022-10-09T06:30:00.873Z,11.35
2022-10-09T06:32:47.920Z,13.02
2022-10-09T06:35:34.904Z,26.30
2022-10-09T06:38:21.321Z,21.48
2022-10-09T06:41:11.501Z,20.73
2022-10-09T06:44:02.721Z,17.75
2022-10-09T06:46:49.860Z,24.15
2022-10-09T06:49:35.497Z,12.98
2022-10-09T06:52:21.325Z,13.15
2022-10-09T06:55:07.313Z,18.38
2022-10-09T06:57:52.971Z,13.15
2022-10-09T07:00:38.945Z,13.93
2022-10-09T07:03:24.917Z,12.93
2022-10-09T07:06:13.809Z,12.80
2022-10-09T07:09:01.656Z,17.90
2022-10-09T07:11:49.288Z,16.95
2022-10-09T07:14:35.241Z,13.25
2022-10-09T07:17:20.770Z,13.20
2022-10-09T07:20:06.833Z,14.98
2022-10-09T07:22:52.943Z,14.15
2022-10-09T07:25:39.575Z,15.00
2022-10-09T07:28:27.433Z,16.05
2022-10-09T07:31:13.743Z,12.65
2022-10-09T07:34:00.505Z,12.70
2022-10-09T07:36:46.879Z,8.60
2022-10-09T07:39:32.567Z,10.02
2022-10-09T07:42:18.272Z,11.63
2022-10-09T07:45:05.272Z,11.70
2022-10-09T07:47:51.644Z,9.65
2022-10-09T07:50:37.721Z,13.80
2022-10-09T07:53:23.790Z,13.27
2022-10-09T07:56:18.224Z,8.85
2022-10-09T07:59:06.234Z,7.40
2022-10-09T08:01:51.877Z,12.48
2022-10-09T08:04:37.802Z,8.88
2022-10-09T08:07:23.478Z,11.50
2022-10-09T08:10:09.849Z,13.95
2022-10-09T08:12:55.647Z,8.70
2022-10-09T08:15:42.789Z,12.05
2022-10-09T08:18:28.534Z,11.15
2022-10-09T08:21:17.128Z,16.20
2022-10-09T08:24:03.146Z,19.27
2022-10-09T08:26:48.717Z,12.48
2022-10-09T08:29:39.937Z,11.23
2022-10-09T08:32:26.109Z,11.63
2022-10-09T08:35:11.729Z,13.05
2022-10-09T08:37:57.996Z,13.25
2022-10-09T08:40:46.556Z,12.88
2022-10-09T08:43:36.156Z,11.30
2022-10-09T08:47:14.229Z,8.77
2022-10-09T08:50:13.256Z,9.35
2022-10-09T08:53:34.220Z,11.43
2022-10-09T08:56:20.337Z,13.95
2022-10-09T08:59:06.075Z,9.65
2022-10-09T09:02:10.779Z,13.55
2022-10-09T09:05:19.429Z,8.13
2022-10-09T09:08:33.650Z,8.13
2022-10-09T09:11:38.423Z,8.43
2022-10-09T09:14:44.425Z,9.30
2022-10-09T09:17:39.357Z,11.27
2022-10-09T09:20:29.644Z,11.57
2022-10-09T09:23:16.566Z,8.30
2022-10-09T09:26:02.754Z,8.70
2022-10-09T09:28:52.691Z,10.40
2022-10-09T09:31:39.467Z,8.68
2022-10-09T09:34:35.289Z,6.80
2022-10-09T09:37:20.838Z,5.82
2022-10-09T09:43:23.104Z,10.05
2022-10-09T09:46:16.328Z,9.52
2022-10-09T09:49:07.051Z,9.00
2022-10-09T09:51:57.484Z,9.10
2022-10-09T09:54:48.193Z,8.10
2022-10-09T09:57:40.990Z,7.75
2022-10-09T10:00:27.051Z,5.68
2022-10-09T10:03:16.526Z,9.60
2022-10-09T10:06:02.615Z,8.63
2022-10-09T10:08:59.369Z,11.40
2022-10-09T10:11:59.779Z,8.48
2022-10-09T10:14:50.047Z,10.03
2022-10-09T10:17:37.182Z,11.48
2022-10-09T10:20:22.931Z,6.75
2022-10-09T10:23:41.831Z,9.48
2022-10-09T10:26:49.147Z,41.40
2022-10-09T10:29:47.797Z,16.00
2022-10-09T10:32:56.152Z,16.92
2022-10-09T10:35:44.213Z,91.47
2022-10-09T10:38:42.987Z,19.10
2022-10-09T10:41:32.573Z,10.65
2022-10-09T10:45:00.481Z,8.50
2022-10-09T10:47:53.139Z,11.20
2022-10-09T10:50:47.813Z,12.98
2022-10-09T10:54:09.481Z,9.00
2022-10-09T10:57:12.968Z,7.80
2022-10-09T11:00:07.834Z,9.25
2022-10-09T11:03:07.901Z,7.43
2022-10-09T11:05:57.857Z,10.50
2022-10-09T11:09:01.821Z,8.75
2022-10-09T11:11:56.122Z,9.88
2022-10-09T11:14:51.301Z,6.15
2022-10-09T11:17:51.050Z,8.25
2022-10-09T11:20:58.940Z,11.98
2022-10-09T11:24:24.126Z,11.43
2022-10-09T11:27:22.121Z,6.22
2022-10-09T11:30:13.077Z,8.27
2022-10-09T11:33:38.742Z,9.20
2022-10-09T11:36:28.047Z,7.68
2022-10-09T11:39:23.958Z,6.57
2022-10-09T11:42:10.785Z,8.00
2022-10-09T11:45:05.107Z,11.80
2022-10-09T11:48:11.883Z,8.13
2022-10-09T11:51:19.859Z,9.23
2022-10-09T11:54:12.719Z,6.70
2022-10-09T11:57:00.456Z,7.15
2022-10-09T11:59:48.213Z,5.25
2022-10-09T12:02:34.955Z,6.70
2022-10-09T12:05:39.881Z,8.73
2022-10-09T12:08:26.988Z,7.65
2022-10-09T12:11:17.514Z,4.75
2022-10-09T12:14:05.896Z,6.10
2022-10-09T12:16:52.212Z,5.65
2022-10-09T12:19:39.669Z,8.95
2022-10-09T12:22:29.133Z,9.52
2022-10-09T12:25:28.578Z,6.20
2022-10-09T12:28:19.992Z,5.47
2022-10-09T12:31:14.563Z,4.22
2022-10-09T12:34:19.249Z,8.00
2022-10-09T12:37:20.623Z,6.25
2022-10-09T12:40:09.938Z,5.15
2022-10-09T12:42:56.921Z,4.50
2022-10-09T12:45:45.566Z,5.00
2022-10-09T12:48:37.236Z,5.13
2022-10-09T12:51:25.730Z,4.18
2022-10-09T12:54:14.988Z,6.72
2022-10-09T12:57:01.508Z,8.98
2022-10-09T12:59:47.983Z,5.93
2022-10-09T13:02:33.724Z,5.30
2022-10-09T13:05:19.611Z,6.05
2022-10-09T13:08:06.302Z,5.88
2022-10-09T13:10:52.936Z,4.70
2022-10-09T13:13:39.586Z,3.45
2022-10-09T13:16:25.544Z,4.30
2022-10-09T13:19:26.110Z,3.40
2022-10-09T13:22:14.397Z,4.28
2022-10-09T13:25:00.545Z,4.43
2022-10-09T13:27:45.958Z,7.10
2022-10-09T13:30:32.174Z,3.28
2022-10-09T13:33:18.214Z,3.97
2022-10-09T13:36:04.429Z,2.60
2022-10-09T13:38:50.478Z,6.88
2022-10-09T13:41:36.840Z,6.18
2022-10-09T13:44:23.012Z,3.75
2022-10-09T13:47:09.102Z,4.72
2022-10-09T13:49:54.790Z,5.28
2022-10-09T13:58:17.089Z,4.50
2022-10-09T14:01:03.168Z,3.25
2022-10-09T14:03:49.611Z,3.35
2022-10-09T14:06:36.668Z,3.78
2022-10-09T14:09:22.666Z,4.88
2022-10-09T14:12:08.730Z,3.88
2022-10-09T14:14:54.506Z,3.15
2022-10-09T14:17:40.221Z,5.60
2022-10-09T14:20:27.072Z,3.35
2022-10-09T14:23:13.594Z,10.35
2022-10-09T14:26:04.029Z,4.90
2022-10-09T14:28:49.951Z,3.78
2022-10-09T14:31:35.759Z,5.47
2022-10-09T14:34:21.967Z,3.40
2022-10-09T14:37:18.755Z,4.57
2022-10-09T14:40:13.619Z,6.55
2022-10-09T14:42:59.543Z,3.83
2022-10-09T14:45:45.070Z,4.63
2022-10-09T14:48:30.964Z,3.55
2022-10-09T14:51:22.026Z,6.82
2022-10-09T14:54:08.841Z,7.38
2022-10-09T14:56:55.075Z,5.75
2022-10-09T14:59:41.002Z,8.55
2022-10-09T15:02:26.458Z,4.13
2022-10-09T15:05:12.301Z,5.22
2022-10-09T15:07:57.830Z,6.72
2022-10-09T15:10:44.002Z,6.80
2022-10-09T15:13:29.969Z,7.80
2022-10-09T15:16:17.580Z,11.73
2022-10-09T15:19:04.643Z,7.60
2022-10-09T15:21:50.257Z,5.60
2022-10-09T15:24:35.868Z,10.40
2022-10-09T15:27:21.934Z,7.65
2022-10-09T15:30:08.479Z,6.82
2022-10-09T15:32:54.842Z,9.02
2022-10-09T15:35:40.333Z,5.10
2022-10-09T15:38:26.493Z,5.68
2022-10-09T15:41:25.314Z,8.93
2022-10-09T15:44:16.876Z,9.10
2022-10-09T15:47:03.448Z,9.98
2022-10-09T15:49:53.357Z,10.25
2022-10-09T15:52:39.175Z,9.25
2022-10-09T15:55:24.843Z,10.27
2022-10-09T15:58:10.987Z,8.45
2022-10-09T16:01:02.533Z,10.95
2022-10-09T16:03:48.425Z,8.05
2022-10-09T16:06:34.406Z,8.73
2022-10-09T16:09:19.950Z,10.27
2022-10-09T16:12:05.834Z,12.60
2022-10-09T16:14:51.681Z,12.13
2022-10-09T16:17:37.811Z,12.90
2022-10-09T16:20:23.478Z,13.07
2022-10-09T16:23:10.683Z,13.60
2022-10-09T16:26:02.913Z,15.18
2022-10-09T16:28:49.895Z,20.23
2022-10-09T16:31:36.488Z,16.42
2022-10-09T16:34:22.492Z,34.13
2022-10-09T16:37:07.913Z,19.65
2022-10-09T16:39:53.587Z,63.00
2022-10-09T16:42:39.623Z,56.55
2022-10-09T16:45:25.943Z,47.45
2022-10-09T16:48:11.560Z,70.38
2022-10-09T16:50:57.616Z,50.05
2022-10-09T16:53:43.450Z,69.90
2022-10-09T16:56:33.082Z,51.63
2022-10-09T16:59:18.966Z,59.38
2022-10-09T17:02:04.601Z,52.40
2022-10-09T17:04:50.017Z,53.08
2022-10-09T17:07:36.043Z,51.45
2022-10-09T17:10:21.812Z,61.97
2022-10-09T17:13:07.734Z,62.20
2022-10-09T17:15:53.420Z,69.88
2022-10-09T17:18:39.613Z,68.95
2022-10-09T17:21:29.297Z,75.82
2022-10-09T17:24:18.890Z,64.68
2022-10-09T17:27:08.929Z,89.00
2022-10-09T17:29:54.788Z,82.43
2022-10-09T17:32:40.585Z,113.40
2022-10-09T17:35:26.165Z,76.70
2022-10-09T17:38:11.720Z,115.15
2022-10-09T17:40:57.526Z,106.40
2022-10-09T17:43:42.908Z,113.05
2022-10-09T17:46:30.536Z,142.68
2022-10-09T17:49:16.613Z,163.88
2022-10-09T17:52:03.089Z,234.82
2022-10-09T17:54:49.088Z,214.55
2022-10-09T17:57:34.860Z,216.80
2022-10-09T18:00:21.935Z,160.43
2022-10-09T18:03:08.092Z,150.68
2022-10-09T18:05:53.412Z,177.23
2022-10-09T18:08:39.917Z,224.30
2022-10-09T18:11:27.367Z,196.85
2022-10-09T18:14:13.413Z,223.75
2022-10-09T18:16:59.556Z,215.07
2022-10-09T18:19:45.506Z,240.13
2022-10-09T18:22:31.679Z,203.75
2022-10-09T18:25:17.652Z,339.45
2022-10-09T18:28:03.293Z,232.23
2022-10-09T18:30:49.264Z,200.18
2022-10-09T18:33:35.546Z,157.70
2022-10-09T18:36:24.569Z,133.05
2022-10-09T18:39:13.668Z,135.45
2022-10-09T18:42:02.185Z,142.32
2022-10-09T18:44:47.722Z,737.97
2022-10-09T18:47:35.236Z,440.98
2022-10-09T18:50:21.383Z,284.38
2022-10-09T18:53:07.594Z,190.43
2022-10-09T18:55:53.247Z,156.60
2022-10-09T18:58:40.717Z,115.13
2022-10-09T19:01:27.350Z,125.28
2022-10-09T19:04:13.156Z,124.53
2022-10-09T19:06:58.887Z,91.05
2022-10-09T19:09:44.913Z,95.45
2022-10-09T19:12:30.467Z,124.00
2022-10-09T19:15:16.450Z,126.35
2022-10-09T19:18:02.362Z,117.70
2022-10-09T19:20:48.835Z,111.38
2022-10-09T19:23:34.575Z,122.47
2022-10-09T19:26:21.193Z,124.68
2022-10-09T19:29:07.580Z,223.00
2022-10-09T19:31:54.136Z,193.45
2022-10-09T19:34:39.744Z,146.77
2022-10-09T19:37:28.961Z,144.73
2022-10-09T19:40:15.748Z,149.18
2022-10-09T19:43:01.604Z,128.38
2022-10-09T19:45:49.763Z,120.13
2022-10-09T19:48:36.673Z,131.40
2022-10-09T19:51:25.506Z,126.47
2022-10-09T19:54:12.405Z,166.30
2022-10-09T19:56:58.188Z,124.00
2022-10-09T19:59:44.263Z,121.50
2022-10-09T20:02:30.477Z,123.32
2022-10-09T20:05:16.574Z,121.03
2022-10-09T20:08:02.246Z,97.32
2022-10-09T20:10:48.209Z,117.63
2022-10-09T20:13:36.148Z,121.10
2022-10-09T20:16:22.430Z,111.93
2022-10-09T20:19:08.327Z,112.75
2022-10-09T20:21:54.277Z,108.75
2022-10-09T20:24:39.667Z,106.82
2022-10-09T20:27:25.822Z,142.45
2022-10-09T20:30:12.127Z,126.00
2022-10-09T20:32:59.439Z,136.13
2022-10-09T20:35:45.465Z,126.20
2022-10-09T20:38:31.421Z,128.30
2022-10-09T20:41:17.056Z,115.53
2022-10-09T20:44:04.037Z,117.45
2022-10-09T20:46:50.172Z,128.57
2022-10-09T20:49:36.088Z,102.28
2022-10-09T20:52:22.121Z,98.85
2022-10-09T20:55:08.211Z,91.50
2022-10-09T20:57:55.002Z,101.10
2022-10-09T21:00:42.963Z,445.50
2022-10-09T21:03:28.724Z,420.40
2022-10-09T21:06:17.386Z,271.10
2022-10-09T21:09:03.379Z,255.15
2022-10-09T21:11:50.617Z,129.88
2022-10-09T21:14:36.648Z,59.78
2022-10-09T21:17:22.994Z,38.10
2022-10-09T21:20:09.021Z,34.67
2022-10-09T21:22:54.895Z,25.27
2022-10-09T21:25:50.128Z,24.55
2022-10-09T21:28:36.040Z,26.05
2022-10-09T21:31:26.132Z,30.65
2022-10-09T21:34:11.996Z,29.10
2022-10-09T21:40:03.965Z,29.35
2022-10-09T21:42:49.929Z,28.45
2022-10-09T21:45:36.872Z,26.98
2022-10-09T21:48:22.552Z,30.55
2022-10-09T21:51:08.618Z,36.60
2022-10-09T21:53:55.054Z,27.70
2022-10-09T21:56:41.224Z,31.25
2022-10-09T21:59:27.199Z,27.75
2022-10-09T22:02:13.159Z,30.13
2022-10-09T22:04:59.326Z,32.78
2022-10-09T22:07:44.961Z,29.70
2022-10-09T22:10:30.686Z,31.25
2022-10-09T22:13:17.638Z,28.13
2022-10-09T22:16:08.161Z,32.60
2022-10-09T22:21:40.063Z,32.35
2022-10-09T22:24:29.186Z,35.60
2022-10-09T22:27:15.315Z,31.10
2022-10-09T22:30:01.306Z,29.48
2022-10-09T22:32:46.890Z,28.67
2022-10-09T22:35:32.925Z,32.58
2022-10-09T22:38:18.474Z,36.60
2022-10-09T22:41:12.530Z,36.72
2022-10-09T22:43:59.399Z,31.80
2022-10-09T22:46:45.894Z,29.00
2022-10-09T22:49:31.379Z,31.05
2022-10-09T22:52:17.471Z,31.35
2022-10-09T22:55:04.052Z,30.38
2022-10-09T22:57:49.836Z,33.17
2022-10-09T23:00:38.431Z,28.00
2022-10-09T23:03:24.518Z,30.45
2022-10-09T23:06:12.725Z,30.13
2022-10-09T23:08:59.296Z,29.40
2022-10-09T23:11:45.149Z,27.65
2022-10-09T23:14:31.219Z,30.65
2022-10-09T23:17:16.828Z,33.42
2022-10-09T23:20:03.205Z,28.83
2022-10-09T23:22:49.135Z,37.13
2022-10-09T23:25:39.925Z,30.40
2022-10-09T23:28:27.848Z,31.08
2022-10-09T23:31:14.776Z,31.45
2022-10-09T23:34:00.372Z,31.15
2022-10-09T23:36:46.346Z,35.53
2022-10-09T23:39:31.842Z,29.83
2022-10-09T23:42:17.840Z,30.55
2022-10-09T23:45:03.646Z,32.90
2022-10-09T23:47:49.795Z,29.92
2022-10-09T23:50:35.270Z,28.70
2022-10-09T23:53:21.876Z,26.83
2022-10-09T23:56:23.794Z,28.23
2022-10-09T23:59:11.123Z,32.08
